Time;durP1;ratioP1;P1;durP2;ratioP2;P2;SDS_P1;SDS_P2;PMS_P1;PMS_P2;Temp;Humidity;BMP_temperature;BMP_pressure;BME280_temperature;BME280_humidity;BME280_pressure;Samples;Min_cycle;Max_cycle;Signal;HPM_P1;HPM_P2
2022/04/04 00:01:21;;;;;;;6.50;3.55;;;3.90;63.80;;;;;;4976529;28;20046;-75
2022/04/04 00:03:49;;;;;;;7.00;3.17;;;3.90;63.70;;;;;;4987153;28;20026;-76
2022/04/04 00:06:19;;;;;;;7.68;3.60;;;3.80;63.70;;;;;;4974156;28;20400;-77
2022/04/04 00:08:50;;;;;;;6.20;3.40;;;3.80;63.70;;;;;;4986474;28;20464;-77
2022/04/04 00:11:24;;;;;;;7.75;3.88;;;3.80;63.80;;;;;;4976631;28;20030;-76
2022/04/04 00:13:53;;;;;;;6.82;3.92;;;3.70;63.90;;;;;;4983674;28;20030;-76
2022/04/04 00:16:22;;;;;;;7.82;3.65;;;3.70;63.90;;;;;;4980644;28;20058;-76
2022/04/04 00:18:51;;;;;;;7.30;4.07;;;3.70;64.20;;;;;;4972401;28;20045;-76
2022/04/04 00:21:22;;;;;;;8.10;3.83;;;3.70;64.50;;;;;;4988301;28;20117;-76
2022/04/04 00:23:51;;;;;;;7.40;3.85;;;3.60;64.40;;;;;;4990750;28;20064;-76
2022/04/04 00:26:22;;;;;;;8.52;4.15;;;3.70;64.50;;;;;;4983964;28;20030;-76
2022/04/04 00:28:57;;;;;;;7.18;3.60;;;3.60;64.60;;;;;;4983774;28;20018;-75
2022/04/04 00:31:23;;;;;;;7.57;3.75;;;3.60;64.60;;;;;;4983459;28;20095;-77
2022/04/04 00:33:48;;;;;;;6.85;3.70;;;3.50;64.70;;;;;;4986277;28;20497;-76
2022/04/04 00:36:15;;;;;;;9.23;4.55;;;3.50;64.70;;;;;;4972853;28;20038;-77
2022/04/04 00:38:44;;;;;;;10.40;4.30;;;3.50;64.80;;;;;;4986010;28;20050;-76
2022/04/04 00:41:15;;;;;;;8.85;4.20;;;3.40;64.70;;;;;;4976350;28;20036;-76
2022/04/04 00:43:41;;;;;;;7.47;4.30;;;3.40;65.00;;;;;;4979757;28;20037;-76
2022/04/04 00:46:08;;;;;;;8.90;4.10;;;3.40;65.00;;;;;;4984040;28;20121;-76
2022/04/04 00:48:34;;;;;;;7.57;4.10;;;3.40;64.90;;;;;;4987557;28;20034;-76
2022/04/04 00:51:01;;;;;;;9.88;3.72;;;3.30;64.70;;;;;;4988261;28;20038;-77
2022/04/04 00:53:27;;;;;;;7.93;4.32;;;3.30;64.60;;;;;;4981648;28;20029;-77
2022/04/04 00:55:54;;;;;;;6.45;3.53;;;3.30;64.60;;;;;;4978648;28;20105;-78
2022/04/04 00:58:20;;;;;;;7.30;3.58;;;3.30;64.60;;;;;;4975396;28;20089;-78
2022/04/04 01:00:48;;;;;;;7.63;3.72;;;3.20;64.60;;;;;;4984088;28;20112;-77
2022/04/04 01:03:14;;;;;;;8.63;4.20;;;3.20;64.60;;;;;;4985800;28;20037;-76
2022/04/04 01:05:40;;;;;;;9.13;4.13;;;3.20;65.30;;;;;;4974213;28;20049;-77
2022/04/04 01:08:07;;;;;;;9.52;4.20;;;3.20;65.40;;;;;;4984191;28;20482;-77
2022/04/04 01:10:33;;;;;;;8.05;4.05;;;3.20;65.60;;;;;;4984414;28;20057;-77
2022/04/04 01:12:58;;;;;;;6.32;3.80;;;3.10;65.60;;;;;;4968313;28;20039;-77
2022/04/04 01:15:30;;;;;;;7.95;3.75;;;3.10;66.40;;;;;;4986741;28;20029;-77
2022/04/04 01:17:55;;;;;;;8.73;3.70;;;3.10;66.60;;;;;;4985093;28;20505;-77
2022/04/04 01:20:21;;;;;;;7.18;3.75;;;3.00;66.60;;;;;;4982795;28;20019;-77
2022/04/04 01:22:48;;;;;;;6.32;3.67;;;3.00;66.80;;;;;;4981755;28;20038;-76
2022/04/04 01:25:16;;;;;;;6.70;3.70;;;3.00;67.30;;;;;;4984601;28;20038;-78
2022/04/04 01:27:46;;;;;;;6.75;3.85;;;3.00;67.30;;;;;;4983243;28;20498;-76
2022/04/04 01:30:13;;;;;;;8.20;3.70;;;3.00;67.20;;;;;;4984644;28;20109;-77
2022/04/04 01:32:38;;;;;;;6.47;3.50;;;3.00;66.90;;;;;;4977891;28;20019;-77
2022/04/04 01:35:05;;;;;;;6.70;3.60;;;2.90;66.70;;;;;;4981464;28;20040;-78
2022/04/04 01:37:32;;;;;;;6.93;3.78;;;2.90;66.70;;;;;;4981595;28;20030;-77
2022/04/04 01:39:58;;;;;;;6.38;3.25;;;2.90;66.80;;;;;;4985929;28;21369;-77
2022/04/04 01:42:24;;;;;;;6.93;3.17;;;2.90;66.70;;;;;;4983633;28;20038;-77
2022/04/04 01:44:50;;;;;;;6.82;3.70;;;2.90;66.60;;;;;;4988014;28;20078;-78
2022/04/04 01:47:16;;;;;;;8.05;3.80;;;2.80;66.50;;;;;;4967693;28;20050;-76
2022/04/04 01:49:42;;;;;;;7.25;3.70;;;2.80;66.60;;;;;;4984461;28;20080;-77
2022/04/04 01:52:08;;;;;;;8.35;3.45;;;2.80;66.80;;;;;;4984434;28;20633;-77
2022/04/04 01:54:34;;;;;;;7.32;3.42;;;2.70;66.80;;;;;;4982609;28;20031;-77
2022/04/04 01:56:59;;;;;;;6.93;3.95;;;2.70;67.10;;;;;;4988467;28;20041;-77
2022/04/04 01:59:25;;;;;;;7.13;3.97;;;2.70;67.70;;;;;;4981229;28;20027;-76
2022/04/04 02:01:51;;;;;;;7.30;3.83;;;2.70;67.80;;;;;;4969698;28;20034;-76
2022/04/04 02:04:17;;;;;;;7.57;3.72;;;2.70;68.10;;;;;;4983742;28;20448;-76
2022/04/04 02:06:44;;;;;;;6.95;3.95;;;2.70;68.10;;;;;;4983748;28;20108;-77
2022/04/04 02:09:09;;;;;;;6.85;3.80;;;2.60;67.70;;;;;;4986250;28;20046;-76
2022/04/04 02:11:35;;;;;;;10.02;3.75;;;2.60;67.50;;;;;;4988231;28;20030;-76
2022/04/04 02:14:02;;;;;;;7.40;3.63;;;2.60;67.40;;;;;;4983829;28;20034;-76
2022/04/04 02:16:29;;;;;;;6.88;4.07;;;2.60;67.40;;;;;;4985974;28;20036;-77
2022/04/04 02:18:55;;;;;;;6.45;3.70;;;2.50;67.30;;;;;;4988428;28;20031;-77
2022/04/04 02:21:21;;;;;;;7.22;4.07;;;2.50;67.30;;;;;;4989845;28;20126;-76
2022/04/04 02:23:47;;;;;;;7.32;3.95;;;2.50;67.40;;;;;;4971216;28;20117;-76
2022/04/04 02:26:12;;;;;;;7.93;4.20;;;2.50;67.20;;;;;;4986342;28;20129;-76
2022/04/04 02:28:38;;;;;;;7.75;4.50;;;2.50;67.10;;;;;;4983024;28;20031;-76
2022/04/04 02:31:05;;;;;;;12.07;4.60;;;2.50;67.00;;;;;;4975217;28;20119;-76
2022/04/04 02:33:31;;;;;;;7.80;4.07;;;2.50;67.00;;;;;;4989182;28;20030;-76
2022/04/04 02:35:57;;;;;;;7.38;3.78;;;2.40;66.90;;;;;;4991247;28;20041;-76
2022/04/04 02:38:25;;;;;;;7.07;3.92;;;2.40;66.80;;;;;;4986106;28;20085;-76
2022/04/04 02:40:51;;;;;;;8.20;4.28;;;2.30;67.00;;;;;;4984527;28;20037;-76
2022/04/04 02:43:18;;;;;;;9.20;3.90;;;2.30;67.00;;;;;;4986486;28;20565;-76
2022/04/04 02:45:44;;;;;;;8.80;4.57;;;2.30;67.10;;;;;;4986438;28;20105;-75
2022/04/04 02:48:10;;;;;;;8.35;4.20;;;2.30;67.00;;;;;;4988393;28;20102;-77
2022/04/04 02:50:36;;;;;;;8.05;3.90;;;2.30;67.10;;;;;;4988267;28;20397;-77
2022/04/04 02:53:02;;;;;;;8.10;4.35;;;2.20;67.50;;;;;;4985015;28;20097;-75
2022/04/04 02:58:14;;;;;;;7.82;4.38;;;2.20;67.70;;;;;;4987944;28;20117;-77
2022/04/04 03:00:40;;;;;;;7.25;4.03;;;2.10;68.70;;;;;;4989931;28;20677;-77
2022/04/04 03:03:06;;;;;;;8.32;3.83;;;2.10;68.00;;;;;;4989802;28;20217;-77
2022/04/04 03:05:32;;;;;;;8.02;4.35;;;2.10;68.40;;;;;;4985916;28;20535;-77
2022/04/04 03:07:58;;;;;;;7.90;4.10;;;2.10;68.10;;;;;;4987834;28;20074;-77
2022/04/04 03:10:23;;;;;;;8.00;3.83;;;2.00;67.70;;;;;;4983816;28;20066;-77
2022/04/04 03:12:51;;;;;;;7.72;4.05;;;2.00;67.60;;;;;;4971539;28;20041;-77
2022/04/04 03:15:22;;;;;;;8.30;4.05;;;2.00;67.40;;;;;;4984914;28;20035;-77
2022/04/04 03:17:51;;;;;;;7.35;4.40;;;2.00;67.40;;;;;;4989115;28;20022;-78
2022/04/04 03:20:19;;;;;;;7.95;3.92;;;1.90;67.60;;;;;;4984751;28;20050;-77
2022/04/04 03:22:56;;;;;;;8.70;4.15;;;1.90;67.70;;;;;;4984375;28;20484;-77
2022/04/04 03:25:22;;;;;;;7.43;4.03;;;1.90;67.90;;;;;;4983135;28;20096;-78
2022/04/04 03:27:49;;;;;;;8.02;4.22;;;1.90;67.90;;;;;;4984783;28;20031;-76
2022/04/04 03:30:18;;;;;;;6.72;3.90;;;1.90;67.90;;;;;;4988026;28;20487;-76
2022/04/04 03:32:45;;;;;;;8.38;4.35;;;1.90;67.90;;;;;;4986996;28;20030;-77
2022/04/04 03:35:14;;;;;;;9.45;4.47;;;1.80;68.00;;;;;;4987312;28;20042;-76
2022/04/04 03:37:42;;;;;;;7.07;4.15;;;1.80;68.10;;;;;;4983952;28;20217;-77
2022/04/04 03:40:09;;;;;;;8.38;4.10;;;1.80;68.20;;;;;;4986081;28;20596;-76
2022/04/04 03:42:37;;;;;;;7.30;4.00;;;1.70;68.30;;;;;;4986675;28;20043;-77
2022/04/04 03:45:06;;;;;;;9.40;4.40;;;1.70;68.50;;;;;;4989866;28;20058;-78
2022/04/04 03:47:33;;;;;;;8.10;4.25;;;1.70;68.70;;;;;;4981086;28;20034;-78
2022/04/04 03:49:59;;;;;;;8.88;4.40;;;1.70;69.10;;;;;;4983674;28;20030;-78
2022/04/04 03:52:28;;;;;;;10.63;4.65;;;1.70;69.30;;;;;;4984284;28;20086;-78
2022/04/04 03:54:54;;;;;;;8.65;4.50;;;1.70;69.50;;;;;;4986433;28;20033;-77
2022/04/04 03:57:20;;;;;;;8.35;4.40;;;1.70;69.30;;;;;;4985655;28;20031;-77
2022/04/04 03:59:46;;;;;;;8.23;4.88;;;1.70;69.20;;;;;;4990626;28;20058;-78
2022/04/04 04:02:12;;;;;;;7.15;3.90;;;1.70;69.10;;;;;;4986672;28;20854;-77
2022/04/04 04:04:38;;;;;;;9.77;4.20;;;1.60;68.90;;;;;;4985383;28;20081;-77
2022/04/04 04:07:06;;;;;;;18.90;4.68;;;1.60;68.90;;;;;;4982526;28;20046;-77
2022/04/04 04:09:31;;;;;;;9.93;4.45;;;1.60;68.80;;;;;;4984634;28;20050;-78
2022/04/04 04:11:57;;;;;;;11.32;4.82;;;1.60;68.60;;;;;;4975827;28;20039;-77
2022/04/04 04:14:24;;;;;;;10.27;4.32;;;1.60;68.90;;;;;;4978060;28;20041;-77
2022/04/04 04:16:50;;;;;;;9.35;4.45;;;1.50;69.40;;;;;;4979382;28;20081;-77
2022/04/04 04:22:00;;;;;;;9.18;4.38;;;1.50;69.40;;;;;;4987068;28;20076;-77
2022/04/04 04:24:26;;;;;;;10.23;5.25;;;1.50;69.30;;;;;;4987138;28;20093;-77
2022/04/04 04:26:53;;;;;;;10.45;5.22;;;1.50;69.40;;;;;;4984904;28;20026;-78
2022/04/04 04:29:19;;;;;;;9.60;4.78;;;1.50;69.60;;;;;;4966477;28;20035;-77
2022/04/04 04:31:44;;;;;;;8.68;4.90;;;1.50;69.60;;;;;;4975576;28;20041;-77
2022/04/04 04:34:10;;;;;;;9.23;4.88;;;1.40;69.40;;;;;;4984443;28;20430;-77
2022/04/04 04:36:39;;;;;;;10.38;4.63;;;1.40;69.70;;;;;;4986689;28;20041;-77
2022/04/04 04:39:06;;;;;;;9.57;4.70;;;1.40;70.20;;;;;;4986029;28;20035;-77
2022/04/04 04:41:32;;;;;;;7.93;4.43;;;1.40;70.80;;;;;;4987102;28;20417;-75
2022/04/04 04:43:58;;;;;;;6.90;4.13;;;1.40;70.80;;;;;;4978415;28;20498;-76
2022/04/04 04:46:23;;;;;;;7.97;4.30;;;1.40;71.00;;;;;;4983702;28;20042;-77
2022/04/04 04:48:49;;;;;;;11.57;5.30;;;1.30;70.80;;;;;;4982913;28;20140;-76
2022/04/04 04:51:15;;;;;;;9.65;5.30;;;1.30;70.60;;;;;;4981448;28;20046;-76
2022/04/04 04:53:41;;;;;;;9.02;5.10;;;1.30;70.70;;;;;;4988298;28;20440;-76
2022/04/04 04:56:07;;;;;;;10.10;4.95;;;1.30;70.50;;;;;;4969024;28;20030;-77
2022/04/04 04:58:32;;;;;;;9.70;4.55;;;1.30;70.30;;;;;;4982646;28;20099;-77
2022/04/04 05:00:58;;;;;;;9.77;4.75;;;1.20;70.30;;;;;;4970666;28;20082;-76
2022/04/04 05:03:24;;;;;;;8.95;5.15;;;1.20;70.40;;;;;;4982825;28;20027;-77
2022/04/04 05:05:50;;;;;;;10.52;5.40;;;1.20;70.10;;;;;;4984406;28;20022;-76
2022/04/04 05:08:15;;;;;;;9.52;5.00;;;1.10;69.90;;;;;;4983321;28;20049;-78
2022/04/04 05:10:41;;;;;;;14.57;5.18;;;1.10;70.00;;;;;;4979154;28;20039;-77
2022/04/04 05:13:07;;;;;;;11.65;4.88;;;1.10;70.00;;;;;;4981280;28;20030;-77
2022/04/04 05:15:33;;;;;;;15.00;5.10;;;1.10;70.00;;;;;;4982682;28;20049;-76
2022/04/04 05:17:58;;;;;;;10.27;5.90;;;1.10;70.10;;;;;;4986418;28;20073;-77
2022/04/04 05:20:24;;;;;;;11.25;6.05;;;1.10;70.30;;;;;;4983100;28;20034;-77
2022/04/04 05:22:50;;;;;;;11.82;5.80;;;1.10;70.60;;;;;;4985191;28;20498;-75
2022/04/04 05:25:16;;;;;;;11.48;5.68;;;1.10;71.00;;;;;;4985129;28;20018;-75
2022/04/04 05:27:41;;;;;;;9.52;5.75;;;1.00;71.00;;;;;;4983862;28;20045;-75
2022/04/04 05:30:08;;;;;;;12.27;5.80;;;1.10;71.10;;;;;;4984067;28;20509;-74
2022/04/04 05:32:34;;;;;;;9.85;5.50;;;1.00;70.90;;;;;;4975154;28;20059;-75
2022/04/04 05:35:01;;;;;;;12.50;5.82;;;1.00;70.60;;;;;;4984703;28;20038;-76
2022/04/04 05:37:27;;;;;;;9.90;5.53;;;1.00;70.70;;;;;;4983900;28;20034;-74
2022/04/04 05:39:53;;;;;;;14.18;5.75;;;1.00;71.10;;;;;;4987044;28;20023;-75
2022/04/04 05:45:41;;;;;;;10.98;5.75;;;1.00;70.60;;;;;;4982220;28;20131;-76
2022/04/04 05:48:07;;;;;;;12.68;5.85;;;1.00;70.30;;;;;;4987602;28;20523;-75
2022/04/04 05:50:33;;;;;;;11.10;6.22;;;1.00;70.30;;;;;;4982401;28;20034;-75
2022/04/04 05:52:59;;;;;;;14.43;5.85;;;1.00;70.30;;;;;;4990158;28;20464;-76
2022/04/04 05:55:25;;;;;;;10.30;5.80;;;1.10;70.40;;;;;;4988994;28;20496;-77
2022/04/04 05:57:51;;;;;;;13.13;7.05;;;1.10;70.20;;;;;;4987878;28;20022;-76
2022/04/04 06:00:17;;;;;;;14.70;6.53;;;1.20;70.40;;;;;;4990495;28;20035;-76
2022/04/04 06:02:47;;;;;;;19.60;7.20;;;1.20;70.40;;;;;;4992823;28;20089;-76
2022/04/04 06:05:12;;;;;;;12.73;6.22;;;1.30;70.20;;;;;;4987262;28;20030;-77
2022/04/04 06:07:40;;;;;;;13.70;6.47;;;1.30;70.00;;;;;;4985440;28;20041;-75
2022/04/04 06:10:08;;;;;;;16.20;7.00;;;1.40;69.60;;;;;;4979139;28;20065;-76
2022/04/04 06:12:36;;;;;;;12.00;6.47;;;1.50;69.50;;;;;;4976503;28;20115;-76
2022/04/04 06:15:02;;;;;;;10.50;5.90;;;1.60;69.30;;;;;;4985580;28;20105;-77
2022/04/04 06:17:28;;;;;;;29.83;7.55;;;2.30;67.80;;;;;;4988071;28;20030;-76
2022/04/04 06:19:55;;;;;;;10.07;5.50;;;3.70;62.20;;;;;;4981309;28;20062;-76
2022/04/04 06:22:22;;;;;;;23.23;7.00;;;4.80;58.00;;;;;;4977849;28;20042;-77
2022/04/04 06:24:49;;;;;;;19.70;8.40;;;5.70;55.20;;;;;;4975247;28;20015;-77
2022/04/04 06:27:15;;;;;;;24.27;9.77;;;6.60;52.60;;;;;;4989467;28;20497;-77
2022/04/04 06:29:42;;;;;;;16.70;8.40;;;7.40;50.40;;;;;;4991039;28;20046;-79
2022/04/04 06:32:10;;;;;;;15.00;7.32;;;8.10;48.30;;;;;;4979618;28;20118;-76
2022/04/04 06:34:36;;;;;;;13.35;7.13;;;8.80;46.50;;;;;;4984395;28;20157;-76
2022/04/04 06:37:04;;;;;;;14.68;6.90;;;9.50;45.00;;;;;;4985862;28;20537;-76
2022/04/04 06:39:30;;;;;;;15.15;7.20;;;10.10;43.70;;;;;;4987619;28;20093;-77
2022/04/04 06:41:56;;;;;;;16.65;8.45;;;10.70;42.30;;;;;;4971630;28;20101;-76
2022/04/04 06:44:23;;;;;;;16.92;9.65;;;11.30;41.10;;;;;;4986712;28;20038;-77
2022/04/04 06:46:49;;;;;;;18.27;10.50;;;11.90;39.80;;;;;;4981670;28;20102;-76
2022/04/04 06:49:14;;;;;;;20.25;11.52;;;12.50;38.70;;;;;;4979020;28;20113;-76
2022/04/04 06:51:40;;;;;;;17.88;12.10;;;13.10;37.70;;;;;;4987651;28;20105;-77
2022/04/04 06:54:07;;;;;;;23.55;12.85;;;13.70;36.60;;;;;;4990985;28;20075;-76
2022/04/04 06:56:36;;;;;;;21.70;14.45;;;14.50;35.40;;;;;;4977152;28;20042;-76
2022/04/04 06:59:03;;;;;;;24.35;15.10;;;14.40;35.40;;;;;;4983025;28;20022;-75
2022/04/04 07:01:31;;;;;;;20.63;13.35;;;15.30;33.50;;;;;;4984452;28;20023;-76
2022/04/04 07:03:58;;;;;;;20.30;12.93;;;16.00;32.10;;;;;;4975517;28;20093;-76
2022/04/04 07:06:25;;;;;;;20.33;14.63;;;16.60;30.80;;;;;;4970711;28;20489;-77
2022/04/04 07:08:51;;;;;;;30.00;15.60;;;17.20;30.00;;;;;;4990966;28;20073;-76
2022/04/04 07:11:16;;;;;;;26.80;15.88;;;17.20;29.60;;;;;;4985229;28;20408;-77
2022/04/04 07:13:44;;;;;;;27.83;16.70;;;16.60;31.10;;;;;;4988571;28;20029;-75
2022/04/04 07:16:10;;;;;;;33.67;19.67;;;17.70;29.30;;;;;;4986852;28;20046;-76
2022/04/04 07:18:36;;;;;;;31.55;18.05;;;18.80;28.10;;;;;;4982525;28;20080;-76
2022/04/04 07:21:01;;;;;;;31.75;18.50;;;18.90;27.70;;;;;;4988483;28;20117;-76
2022/04/04 07:23:27;;;;;;;31.08;18.02;;;19.20;27.30;;;;;;4989206;28;20501;-76
2022/04/04 07:25:53;;;;;;;29.42;18.27;;;18.10;28.40;;;;;;4987843;28;20041;-76
2022/04/04 07:28:21;;;;;;;30.00;18.73;;;17.40;29.20;;;;;;4986320;28;20106;-76
2022/04/04 07:30:47;;;;;;;26.65;16.77;;;17.80;28.90;;;;;;4987602;28;20034;-76
2022/04/04 07:33:18;;;;;;;27.92;16.33;;;19.60;26.90;;;;;;4989365;28;20076;-76
2022/04/04 07:35:45;;;;;;;27.75;16.85;;;20.80;25.50;;;;;;4986939;28;20449;-73
2022/04/04 07:38:11;;;;;;;33.42;17.35;;;21.80;24.60;;;;;;4988230;28;20058;-76
2022/04/04 07:40:38;;;;;;;33.08;19.13;;;22.70;23.50;;;;;;4984940;28;20077;-76
2022/04/04 07:43:04;;;;;;;26.52;17.67;;;23.00;23.00;;;;;;4987788;28;20046;-75
2022/04/04 07:45:31;;;;;;;26.85;17.45;;;23.50;22.60;;;;;;4988320;28;20038;-76
2022/04/04 07:47:58;;;;;;;28.05;16.02;;;22.30;23.70;;;;;;4987649;28;20084;-76
2022/04/04 07:50:24;;;;;;;27.33;15.93;;;20.80;25.20;;;;;;4984511;28;20034;-75
2022/04/04 07:52:50;;;;;;;26.15;15.85;;;19.80;26.20;;;;;;4986964;28;20571;-75
2022/04/04 07:55:16;;;;;;;26.23;14.77;;;19.70;26.30;;;;;;4987251;28;20405;-75
2022/04/04 07:57:42;;;;;;;23.95;13.63;;;19.90;26.30;;;;;;4989431;28;20022;-75
2022/04/04 08:00:17;;;;;;;19.70;12.82;;;19.90;26.20;;;;;;4987425;28;20445;-75
2022/04/04 08:02:44;;;;;;;21.98;12.77;;;19.60;26.60;;;;;;4984706;28;20089;-75
2022/04/04 08:05:11;;;;;;;24.35;12.82;;;19.00;27.40;;;;;;4986148;28;20034;-75
2022/04/04 08:07:37;;;;;;;26.23;12.52;;;18.70;28.70;;;;;;4987222;28;20054;-76
2022/04/04 08:10:04;;;;;;;20.50;11.00;;;18.40;28.30;;;;;;4986042;28;20050;-75
2022/04/04 08:12:31;;;;;;;17.55;11.20;;;18.20;28.80;;;;;;4987762;28;20031;-75
2022/04/04 08:14:57;;;;;;;19.63;11.35;;;18.30;28.70;;;;;;4987934;28;20776;-76
2022/04/04 08:17:23;;;;;;;18.02;10.77;;;18.10;29.30;;;;;;4981955;28;20049;-75
2022/04/04 08:19:50;;;;;;;15.18;8.95;;;19.10;28.10;;;;;;4985923;28;20042;-75
2022/04/04 08:22:16;;;;;;;16.23;9.05;;;21.30;25.80;;;;;;4988613;28;20149;-75
2022/04/04 08:24:42;;;;;;;15.25;8.65;;;24.20;23.00;;;;;;4985187;28;20443;-75
2022/04/04 08:27:10;;;;;;;12.38;7.40;;;26.20;21.40;;;;;;4988464;28;20501;-76
2022/04/04 08:29:37;;;;;;;17.20;6.45;;;27.80;20.10;;;;;;4983836;28;20417;-76
2022/04/04 08:32:03;;;;;;;11.85;5.45;;;28.90;18.70;;;;;;4984192;28;20049;-75
2022/04/04 08:34:29;;;;;;;8.93;4.60;;;29.80;17.80;;;;;;4987989;28;20137;-76
2022/04/04 08:36:55;;;;;;;7.80;3.85;;;30.10;17.60;;;;;;4987854;28;20241;-75
2022/04/04 08:39:21;;;;;;;9.93;3.58;;;30.90;16.80;;;;;;4988497;28;20109;-76
2022/04/04 08:41:47;;;;;;;8.60;4.00;;;31.40;16.20;;;;;;4990755;28;20121;-75
2022/04/04 08:44:15;;;;;;;7.07;3.70;;;31.70;16.10;;;;;;4987803;28;20065;-76
2022/04/04 08:46:42;;;;;;;5.30;2.70;;;32.90;15.10;;;;;;4987826;28;20057;-77
2022/04/04 08:49:08;;;;;;;8.85;2.50;;;32.60;14.40;;;;;;4985751;28;20030;-76
2022/04/04 08:51:36;;;;;;;8.25;3.78;;;30.40;15.50;;;;;;4987550;28;20057;-74
2022/04/04 08:54:02;;;;;;;7.57;3.88;;;28.90;16.30;;;;;;4988637;28;20501;-75
2022/04/04 08:56:28;;;;;;;8.48;4.47;;;27.60;17.30;;;;;;4985302;28;20113;-76
2022/04/04 08:58:55;;;;;;;7.45;3.10;;;27.10;17.80;;;;;;4982881;28;20102;-76
2022/04/04 09:01:23;;;;;;;6.43;2.58;;;27.70;17.10;;;;;;4984497;28;20045;-76
2022/04/04 09:03:53;;;;;;;5.90;3.00;;;29.30;16.50;;;;;;4988016;28;20034;-77
2022/04/04 09:06:20;;;;;;;;;;;30.80;15.00;;;;;;4987370;28;20022;-75
2022/04/04 09:08:48;;;;;;;5.55;3.15;;;30.00;15.60;;;;;;4989568;28;19917;-77
2022/04/04 09:11:15;;;;;;;6.45;3.75;;;28.40;16.40;;;;;;4982497;28;20088;-76
2022/04/04 09:13:42;;;;;;;7.30;3.42;;;26.60;18.20;;;;;;4982484;28;20054;-75
2022/04/04 09:16:08;;;;;;;8.55;3.55;;;25.40;19.00;;;;;;4983287;28;20556;-75
2022/04/04 09:18:40;;;;;;;7.60;3.47;;;25.00;19.10;;;;;;4985604;28;20033;-76
2022/04/04 09:21:11;;;;;;;7.85;3.70;;;24.40;19.70;;;;;;4984197;28;20391;-75
2022/04/04 09:23:43;;;;;;;;;;;23.50;20.70;;;;;;4984018;28;20026;-76
2022/04/04 09:26:29;;;;;;;7.55;3.22;;;22.90;21.60;;;;;;4984144;28;19909;-75
2022/04/04 09:28:55;;;;;;;7.25;4.10;;;22.50;21.90;;;;;;4983863;28;20026;-76
2022/04/04 09:31:21;;;;;;;8.45;3.33;;;22.10;22.30;;;;;;4982896;28;20073;-75
2022/04/04 09:33:47;;;;;;;6.47;3.60;;;21.90;22.20;;;;;;4983615;28;20042;-75
2022/04/04 09:36:13;;;;;;;7.43;3.55;;;21.60;22.60;;;;;;4986464;28;20076;-75
2022/04/04 09:38:43;;;;;;;9.85;3.97;;;21.40;22.80;;;;;;4989164;28;20038;-76
2022/04/04 09:41:15;;;;;;;6.07;3.70;;;21.50;23.40;;;;;;4979431;28;20062;-76
2022/04/04 09:43:51;;;;;;;6.93;3.55;;;23.30;22.30;;;;;;4980434;28;20519;-75
2022/04/04 09:46:17;;;;;;;7.30;4.00;;;25.60;19.20;;;;;;4985317;28;20042;-76
2022/04/04 09:49:16;;;;;;;6.50;3.67;;;26.60;18.40;;;;;;4968533;28;20034;-76
2022/04/04 09:51:46;;;;;;;6.47;3.60;;;28.80;16.70;;;;;;4980483;28;20749;-75
2022/04/04 09:54:19;;;;;;;7.13;3.20;;;29.40;15.80;;;;;;4984252;28;20030;-76
2022/04/04 09:56:46;;;;;;;7.95;3.20;;;28.20;16.70;;;;;;4986223;28;20041;-75
2022/04/04 09:59:15;;;;;;;7.75;3.17;;;27.60;17.00;;;;;;4982755;28;20125;-75
2022/04/04 10:01:45;;;;;;;5.35;3.42;;;26.60;17.50;;;;;;4983638;28;20125;-75
2022/04/04 10:04:12;;;;;;;5.93;3.40;;;25.40;19.10;;;;;;4983887;28;20436;-76
2022/04/04 10:06:43;;;;;;;6.95;3.20;;;24.80;19.60;;;;;;4984258;28;20037;-76
2022/04/04 10:09:09;;;;;;;7.18;3.30;;;24.90;19.50;;;;;;4982715;28;20054;-76
2022/04/04 10:11:38;;;;;;;6.60;3.45;;;24.90;19.40;;;;;;4983678;28;20037;-75
2022/04/04 10:14:05;;;;;;;6.68;3.22;;;25.00;19.30;;;;;;4981289;28;20176;-76
2022/04/04 10:16:33;;;;;;;6.45;3.17;;;25.80;18.80;;;;;;4983679;28;20038;-76
2022/04/04 10:18:59;;;;;;;6.68;3.05;;;26.00;18.70;;;;;;4982568;28;20050;-76
2022/04/04 10:21:26;;;;;;;5.22;2.75;;;26.20;18.30;;;;;;4979349;28;20413;-75
2022/04/04 10:23:56;;;;;;;5.55;2.70;;;26.00;18.40;;;;;;4985587;28;20030;-76
2022/04/04 10:26:30;;;;;;;5.35;2.70;;;26.00;18.50;;;;;;4983457;28;20117;-76
2022/04/04 10:29:13;;;;;;;11.90;3.10;;;25.80;18.70;;;;;;4982116;28;20039;-75
2022/04/04 10:31:50;;;;;;;6.97;3.15;;;25.30;19.00;;;;;;4979831;28;20489;-76
2022/04/04 10:34:24;;;;;;;6.57;3.15;;;24.50;20.30;;;;;;4985011;28;20057;-75
2022/04/04 10:36:57;;;;;;;4.93;2.70;;;24.50;20.20;;;;;;4982503;28;20054;-75
2022/04/04 10:39:45;;;;;;;9.52;3.25;;;24.80;20.00;;;;;;4987366;28;20046;-75
2022/04/04 10:42:30;;;;;;;5.90;3.30;;;24.80;19.90;;;;;;4987469;28;20053;-75
2022/04/04 10:44:59;;;;;;;6.57;4.03;;;24.80;20.20;;;;;;4990605;28;20034;-76
2022/04/04 10:47:27;;;;;;;9.98;4.15;;;25.00;19.70;;;;;;4988938;28;20037;-77
2022/04/04 10:49:56;;;;;;;8.00;4.20;;;24.60;20.20;;;;;;4985649;28;20021;-76
2022/04/04 10:52:43;;;;;;;6.18;3.20;;;24.20;20.30;;;;;;4986700;28;20037;-75
2022/04/04 10:55:38;;;;;;;9.50;3.70;;;23.60;20.50;;;;;;4987137;28;20045;-77
2022/04/04 10:58:16;;;;;;;6.40;3.78;;;23.40;21.30;;;;;;4987465;28;20052;-76
2022/04/04 11:01:09;;;;;;;8.95;3.60;;;23.80;20.80;;;;;;4981171;28;20030;-76
2022/04/04 11:03:41;;;;;;;6.53;3.65;;;24.70;19.80;;;;;;4982693;28;20066;-77
2022/04/04 11:09:12;;;;;;;5.88;3.40;;;26.40;18.40;;;;;;4987003;28;20154;-77
2022/04/04 11:12:14;;;;;;;7.15;3.70;;;27.10;18.10;;;;;;4989690;28;20023;-77
2022/04/04 11:14:41;;;;;;;7.80;4.30;;;26.70;17.80;;;;;;4972095;28;20053;-76
2022/04/04 11:20:10;;;;;;;8.25;3.78;;;25.60;18.80;;;;;;4986623;28;20151;-75
2022/04/04 11:22:51;;;;;;;6.05;3.80;;;24.80;19.80;;;;;;4987204;28;20030;-76
2022/04/04 11:25:22;;;;;;;7.20;3.83;;;24.30;20.50;;;;;;4979489;28;20382;-76
2022/04/04 11:27:48;;;;;;;4.72;3.47;;;24.10;20.40;;;;;;4984085;28;20460;-76
2022/04/04 11:30:20;;;;;;;6.65;3.83;;;24.00;20.50;;;;;;4989529;28;20026;-76
2022/04/04 11:32:49;;;;;;;7.35;4.03;;;23.90;20.80;;;;;;4990724;28;20038;-77
2022/04/04 11:35:27;;;;;;;6.35;3.53;;;23.90;20.50;;;;;;4991622;28;20042;-76
2022/04/04 11:38:18;;;;;;;8.30;4.10;;;24.20;20.10;;;;;;4988507;28;20030;-76
2022/04/04 11:40:45;;;;;;;5.30;3.75;;;24.70;20.00;;;;;;4984117;28;20557;-76
2022/04/04 11:43:16;;;;;;;5.75;3.50;;;24.80;19.80;;;;;;4986556;28;20725;-77
2022/04/04 11:45:43;;;;;;;6.68;3.80;;;24.80;20.00;;;;;;4987296;28;20061;-76
2022/04/04 11:48:11;;;;;;;7.25;3.80;;;24.30;19.80;;;;;;4988597;28;20093;-76
2022/04/04 11:50:38;;;;;;;9.90;7.70;;;23.80;20.60;;;;;;4986124;28;21037;-75
2022/04/04 11:53:09;;;;;;;7.32;4.97;;;23.30;21.30;;;;;;4985233;28;20076;-76
2022/04/04 11:55:37;;;;;;;5.97;3.65;;;22.80;21.30;;;;;;4984389;28;20105;-76
2022/04/04 11:58:12;;;;;;;6.95;4.85;;;22.40;21.60;;;;;;4986060;28;20133;-76
2022/04/04 12:00:43;;;;;;;5.15;3.53;;;22.30;22.20;;;;;;4986945;28;20026;-76
2022/04/04 12:03:12;;;;;;;;;;;22.10;22.30;;;;;;4986248;28;20141;-76
2022/04/04 12:05:49;;;;;;;9.27;5.38;;;21.80;22.30;;;;;;4988908;28;19920;-80
2022/04/04 12:08:19;;;;;;;7.78;4.22;;;21.70;22.50;;;;;;4985169;28;20030;-78
2022/04/04 12:10:47;;;;;;;6.63;3.65;;;21.70;22.10;;;;;;4985092;28;20050;-77
2022/04/04 12:13:21;;;;;;;8.27;3.80;;;21.70;22.40;;;;;;4986004;28;20038;-78
2022/04/04 12:18:24;;;;;;;7.68;3.97;;;21.10;22.80;;;;;;4147923;23;20066;-77
2022/04/04 12:20:52;;;;;;;7.65;3.75;;;20.50;23.30;;;;;;4990034;28;20061;-76
2022/04/04 12:26:22;;;;;;;5.82;3.40;;;19.50;24.80;;;;;;4707075;23;20062;-77
2022/04/04 12:28:48;;;;;;;4.95;3.40;;;19.10;24.70;;;;;;4983382;28;20034;-76
2022/04/04 12:31:20;;;;;;;7.30;3.70;;;19.00;25.50;;;;;;4980059;28;20030;-77
2022/04/04 12:34:09;;;;;;;5.35;3.40;;;18.90;25.60;;;;;;4975943;28;20058;-76
2022/04/04 12:36:40;;;;;;;6.45;3.88;;;18.90;25.70;;;;;;4980912;28;20034;-76
2022/04/04 12:39:08;;;;;;;6.65;3.60;;;19.00;25.50;;;;;;4971442;28;20493;-76
2022/04/04 12:42:07;;;;;;;5.97;3.90;;;19.00;25.60;;;;;;4981624;28;20408;-76
2022/04/04 12:44:34;;;;;;;5.43;3.30;;;19.10;26.00;;;;;;4969338;28;20757;-76
2022/04/04 12:47:08;;;;;;;4.78;3.33;;;19.10;26.20;;;;;;4980964;28;20093;-77
2022/04/04 12:49:35;;;;;;;8.25;4.40;;;19.10;26.30;;;;;;4957635;28;20019;-77
2022/04/04 12:52:08;;;;;;;9.13;4.15;;;19.20;26.50;;;;;;4988554;28;20085;-77
2022/04/04 12:54:37;;;;;;;7.03;3.60;;;19.10;26.40;;;;;;4976701;28;20026;-77
2022/04/04 12:57:05;;;;;;;5.22;3.42;;;19.10;26.20;;;;;;4980861;28;20030;-77
2022/04/04 12:59:53;;;;;;;8.88;3.28;;;19.00;25.70;;;;;;4977766;28;20436;-77
2022/04/04 13:02:27;;;;;;;6.03;2.95;;;18.90;26.20;;;;;;4982122;28;20066;-76
2022/04/04 13:05:15;;;;;;;4.90;3.13;;;18.70;25.90;;;;;;4984338;28;20692;-76
2022/04/04 13:07:54;;;;;;;6.80;3.05;;;18.60;25.90;;;;;;4986556;28;20034;-76
2022/04/04 13:10:24;;;;;;;7.07;3.40;;;18.50;26.80;;;;;;4987965;28;20030;-76
2022/04/04 13:13:06;;;;;;;5.63;3.17;;;18.50;27.00;;;;;;4976443;28;20104;-77
2022/04/04 13:15:40;;;;;;;5.82;3.45;;;18.50;27.30;;;;;;4976632;28;20037;-76